Time;durP1;ratioP1;P1;durP2;ratioP2;P2;SDS_P1;SDS_P2;PMS_P1;PMS_P2;Temp;Humidity;BMP_temperature;BMP_pressure;BME280_temperature;BME280_humidity;BME280_pressure;Samples;Min_cycle;Max_cycle;Signal;HPM_P1;HPM_P2
2021/12/01 00:01:32;;;;;;;25.23;5.57;;;11.80;99.90;;;11.73;100.00;99813.72;5051456;28;20418;-72
2021/12/01 00:04:02;;;;;;;19.73;5.82;;;11.70;99.90;;;11.93;100.00;99844.13;5055429;28;20128;-72
2021/12/01 00:06:30;;;;;;;18.23;5.63;;;11.70;99.90;;;11.92;100.00;99815.88;5056574;28;20371;-71
2021/12/01 00:08:59;;;;;;;21.60;5.80;;;11.70;99.90;;;11.91;100.00;99808.84;5056899;28;20072;-73
2021/12/01 00:11:27;;;;;;;22.95;4.40;;;11.70;99.90;;;11.87;100.00;99796.56;5056719;28;20067;-73
2021/12/01 00:13:56;;;;;;;21.75;4.88;;;11.70;99.90;;;11.93;100.00;99809.66;5055428;28;20053;-71
2021/12/01 00:16:24;;;;;;;20.60;5.25;;;11.70;99.90;;;12.02;100.00;99790.88;5056445;28;20041;-71
2021/12/01 00:18:53;;;;;;;19.42;4.97;;;11.80;99.90;;;11.95;100.00;99792.81;5056413;28;20440;-71
2021/12/01 00:21:22;;;;;;;24.90;5.82;;;11.80;99.90;;;11.93;100.00;99735.47;5056342;28;20033;-72
2021/12/01 00:23:52;;;;;;;15.82;5.07;;;11.70;99.90;;;12.01;100.00;99790.00;5056294;28;20052;-71
2021/12/01 00:26:21;;;;;;;15.35;4.30;;;11.80;99.90;;;12.05;100.00;99778.41;5056656;28;20033;-71
2021/12/01 00:28:50;;;;;;;13.43;4.90;;;11.90;99.90;;;12.10;100.00;99765.03;5056405;28;20451;-71
2021/12/01 00:31:18;;;;;;;12.68;4.95;;;11.90;99.90;;;11.98;100.00;99745.03;5056526;28;20084;-71
2021/12/01 00:33:46;;;;;;;13.02;4.70;;;11.90;99.90;;;11.91;100.00;99730.22;5056353;28;20037;-72
2021/12/01 00:36:15;;;;;;;11.07;4.40;;;11.90;99.90;;;12.07;100.00;99742.13;5056108;28;20056;-71
2021/12/01 00:38:46;;;;;;;11.82;4.43;;;11.90;99.90;;;12.02;100.00;99745.84;5054967;28;20497;-72
2021/12/01 00:41:15;;;;;;;9.10;4.20;;;11.80;99.90;;;12.02;100.00;99735.22;5056300;28;20116;-72
2021/12/01 00:43:44;;;;;;;12.05;4.63;;;11.80;99.90;;;12.10;100.00;99738.53;5056196;28;20143;-71
2021/12/01 00:46:20;;;;;;;10.25;4.15;;;11.90;99.90;;;12.04;100.00;99718.34;5055786;28;20049;-72
2021/12/01 00:48:48;;;;;;;11.55;4.72;;;11.90;99.90;;;12.12;100.00;99723.44;5056421;28;20037;-72
2021/12/01 00:51:17;;;;;;;16.80;5.40;;;11.90;99.90;;;11.86;100.00;99699.47;5055797;28;20120;-71
2021/12/01 00:53:47;;;;;;;14.48;5.35;;;11.80;99.90;;;12.00;100.00;99715.84;5054698;28;20049;-72
2021/12/01 00:56:15;;;;;;;11.20;4.80;;;11.80;99.90;;;11.96;100.00;99688.59;5055714;28;20080;-72
2021/12/01 00:58:43;;;;;;;8.88;5.07;;;11.80;99.90;;;11.89;100.00;99667.56;5055620;28;20033;-72
2021/12/01 01:01:12;;;;;;;11.88;5.93;;;11.70;99.90;;;11.89;100.00;99694.06;5055560;28;20045;-71
2021/12/01 01:03:41;;;;;;;11.35;5.35;;;11.80;99.90;;;11.99;100.00;99688.47;5055596;28;20041;-72
2021/12/01 01:06:09;;;;;;;14.57;5.13;;;11.80;99.90;;;11.95;100.00;99691.25;5055737;28;20138;-72
2021/12/01 01:08:38;;;;;;;16.73;5.25;;;11.80;99.90;;;11.98;100.00;99667.34;5055758;28;20049;-72
2021/12/01 01:16:22;;;;;;;17.83;5.22;;;11.80;99.90;;;12.01;100.00;99669.88;5055678;28;20053;-72
2021/12/01 01:16:49;;;;;;;15.90;5.13;;;11.90;99.90;;;11.97;99.16;99625.84;5055351;28;20134;-72
2021/12/01 01:19:20;;;;;;;15.98;4.75;;;11.90;99.90;;;12.02;98.74;99630.06;5055329;28;20053;-72
2021/12/01 01:21:51;;;;;;;14.57;4.95;;;11.80;99.90;;;11.99;98.46;99618.72;5055304;28;20045;-73
2021/12/01 01:24:20;;;;;;;23.50;5.60;;;11.80;99.90;;;11.83;98.34;99590.97;5055278;28;20041;-72
2021/12/01 01:26:50;;;;;;;19.92;4.97;;;11.90;99.90;;;11.41;98.29;99535.66;5055081;28;20041;-72
2021/12/01 01:29:21;;;;;;;24.65;6.57;;;11.90;99.90;;;12.11;97.98;99623.63;5054902;28;20110;-72
2021/12/01 01:31:53;;;;;;;19.10;5.60;;;11.90;99.90;;;11.97;98.21;99612.59;5055121;28;20132;-72
2021/12/01 01:34:22;;;;;;;21.27;5.47;;;11.90;99.90;;;12.09;97.84;99622.81;5054987;28;20445;-72
2021/12/01 01:36:51;;;;;;;17.08;5.35;;;11.90;99.90;;;12.11;97.53;99607.75;5054789;28;20127;-72
2021/12/01 01:39:20;;;;;;;15.65;4.85;;;12.00;99.90;;;12.02;97.48;99613.34;5054904;28;20564;-72
2021/12/01 01:41:52;;;;;;;15.52;4.93;;;11.90;99.90;;;12.12;97.80;99596.22;5054844;28;20522;-72
2021/12/01 01:44:20;;;;;;;15.32;4.85;;;11.90;99.90;;;12.14;97.77;99599.69;5055393;28;20071;-71
2021/12/01 01:46:49;;;;;;;18.48;4.22;;;12.00;99.90;;;12.12;97.42;99583.81;5054703;28;20040;-71
2021/12/01 01:49:19;;;;;;;9.55;4.07;;;11.90;99.90;;;12.14;97.28;99574.06;5054940;28;20052;-71
2021/12/01 01:51:49;;;;;;;18.52;5.43;;;12.00;99.90;;;12.11;96.69;99562.69;5054730;28;20077;-71
2021/12/01 01:54:18;;;;;;;13.18;5.47;;;11.90;99.90;;;11.77;96.75;99515.16;5054716;28;20468;-71
2021/12/01 01:56:47;;;;;;;15.70;4.78;;;11.90;99.90;;;12.12;96.89;99567.06;5055133;28;20087;-71
2021/12/01 01:59:17;;;;;;;15.55;4.75;;;11.90;99.90;;;12.07;96.89;99543.38;5054798;28;20087;-71
2021/12/01 02:01:46;;;;;;;12.60;4.03;;;11.90;99.90;;;12.07;96.98;99521.28;5054830;28;20037;-72
2021/12/01 02:04:17;;;;;;;11.65;4.05;;;11.90;99.90;;;12.10;96.91;99527.34;5054702;28;20048;-71
2021/12/01 02:06:48;;;;;;;10.20;4.05;;;11.90;99.90;;;12.02;97.08;99523.22;5054354;28;20086;-71
2021/12/01 02:09:20;;;;;;;9.10;4.00;;;11.90;99.90;;;11.89;97.27;99516.56;5054702;28;20053;-71
2021/12/01 02:11:50;;;;;;;13.23;4.78;;;11.80;99.90;;;12.00;97.04;99503.88;5054693;28;20157;-71
2021/12/01 02:14:19;;;;;;;11.20;4.47;;;11.80;99.90;;;11.99;97.07;99472.97;5054181;28;20486;-70
2021/12/01 02:16:48;;;;;;;10.17;4.17;;;11.80;99.90;;;11.90;97.16;99467.97;5054532;28;20059;-71
2021/12/01 02:19:17;;;;;;;7.03;3.90;;;11.80;99.90;;;12.00;96.93;99466.75;5054168;28;20319;-71
2021/12/01 02:21:47;;;;;;;8.55;4.18;;;11.80;99.90;;;12.05;96.95;99481.59;5054047;28;20102;-71
2021/12/01 02:24:19;;;;;;;9.80;3.97;;;11.80;99.90;;;11.89;96.33;99452.97;5054128;28;20095;-71
2021/12/01 02:26:51;;;;;;;9.95;3.90;;;11.80;99.90;;;12.11;96.24;99459.31;5053454;28;20131;-71
2021/12/01 02:29:23;;;;;;;6.43;4.03;;;11.90;99.90;;;12.03;96.20;99453.41;5053736;28;20071;-70
2021/12/01 02:31:53;;;;;;;7.05;3.63;;;11.80;99.90;;;12.07;96.27;99458.56;5054248;28;20048;-71
2021/12/01 02:34:24;;;;;;;7.15;4.50;;;11.90;99.90;;;12.05;96.26;99457.75;5053804;28;20049;-71
2021/12/01 02:36:58;;;;;;;8.57;3.72;;;11.90;99.90;;;12.01;96.47;99442.84;5053823;28;20052;-70
2021/12/01 02:39:28;;;;;;;8.48;4.90;;;11.80;99.90;;;11.95;97.06;99436.88;5053785;28;20040;-71
2021/12/01 02:42:01;;;;;;;9.02;4.47;;;11.80;99.90;;;11.91;97.87;99446.72;5054147;28;20037;-71
2021/12/01 02:44:30;;;;;;;6.60;4.00;;;11.70;99.90;;;11.69;98.46;99420.06;5053666;28;20438;-71
2021/12/01 02:47:00;;;;;;;7.25;4.10;;;11.70;99.90;;;11.87;99.06;99421.25;5053482;28;20041;-71
2021/12/01 02:49:29;;;;;;;4.90;3.70;;;11.70;99.90;;;11.81;99.41;99410.84;5053559;28;20052;-71
2021/12/01 02:51:59;;;;;;;6.43;4.20;;;11.60;99.90;;;11.77;99.64;99417.16;5053483;28;20076;-71
2021/12/01 02:54:29;;;;;;;4.57;3.88;;;11.50;99.90;;;11.59;99.88;99397.38;5053741;28;20094;-71
2021/12/01 02:56:59;;;;;;;6.80;4.10;;;11.50;99.90;;;11.70;100.00;99395.31;5053720;28;20049;-71
2021/12/01 02:59:28;;;;;;;4.60;4.20;;;11.50;99.90;;;11.51;100.00;99361.50;5053379;28;20052;-71
2021/12/01 03:01:57;;;;;;;5.22;4.70;;;11.50;99.90;;;11.60;100.00;99374.44;5052337;28;20060;-71
2021/12/01 03:04:27;;;;;;;7.72;4.85;;;11.40;99.90;;;11.57;100.00;99387.78;5053351;28;20075;-71
2021/12/01 03:06:58;;;;;;;7.95;5.20;;;11.40;99.90;;;11.49;100.00;99340.38;5053441;28;20098;-71
2021/12/01 03:09:27;;;;;;;5.53;4.97;;;11.40;99.90;;;11.62;100.00;99365.53;5053260;28;20045;-71
2021/12/01 03:11:57;;;;;;;7.68;4.60;;;11.40;99.90;;;11.45;100.00;99319.34;5053395;28;20072;-71
2021/12/01 03:14:25;;;;;;;9.05;4.85;;;11.40;99.90;;;11.58;100.00;99336.53;5053376;28;20068;-71
2021/12/01 03:16:55;;;;;;;7.32;5.18;;;11.40;99.90;;;11.42;100.00;99320.28;5053058;28;20037;-71
2021/12/01 03:19:24;;;;;;;6.47;5.53;;;11.30;99.90;;;11.37;100.00;99316.94;5051970;28;20513;-71
2021/12/01 03:21:52;;;;;;;12.50;5.70;;;11.20;99.90;;;11.39;100.00;99293.06;5051987;28;20112;-71
2021/12/01 03:24:22;;;;;;;6.15;5.32;;;11.30;99.90;;;11.32;100.00;99287.13;5053168;28;20052;-71
2021/12/01 03:26:50;;;;;;;6.85;6.07;;;11.20;99.90;;;11.38;100.00;99302.78;5052860;28;20045;-71
2021/12/01 03:29:19;;;;;;;9.48;6.20;;;11.20;99.90;;;11.35;100.00;99279.06;5052655;28;20044;-70
2021/12/01 03:31:47;;;;;;;9.18;6.75;;;11.20;99.90;;;11.38;100.00;99278.97;5052906;28;20049;-71
2021/12/01 03:34:16;;;;;;;8.10;6.70;;;11.20;99.90;;;11.28;100.00;99272.25;5053064;28;20037;-71
2021/12/01 03:36:45;;;;;;;8.38;5.97;;;11.10;99.90;;;11.04;100.00;99236.00;5052471;28;20056;-71
2021/12/01 03:39:13;;;;;;;7.72;6.10;;;11.00;99.90;;;11.20;100.00;99246.94;5051254;28;20490;-70
2021/12/01 03:41:43;;;;;;;6.32;5.72;;;11.00;99.90;;;11.07;100.00;99243.81;5052969;28;20101;-71
2021/12/01 03:44:12;;;;;;;8.15;6.93;;;11.00;99.90;;;11.07;100.00;99262.34;5053311;28;20067;-70
2021/12/01 03:46:40;;;;;;;9.45;7.25;;;10.90;99.90;;;11.08;100.00;99242.94;5052897;28;20037;-71
2021/12/01 03:49:08;;;;;;;9.07;7.47;;;10.90;99.90;;;11.00;100.00;99223.78;5052594;28;20494;-71
2021/12/01 03:51:37;;;;;;;8.45;7.65;;;10.90;99.90;;;11.00;100.00;99236.13;5052611;28;20124;-71
2021/12/01 03:54:05;;;;;;;11.57;7.47;;;10.80;99.90;;;10.97;100.00;99229.19;5052818;28;20041;-71
2021/12/01 03:56:34;;;;;;;8.02;7.20;;;10.80;99.90;;;10.99;100.00;99211.50;5051451;28;20482;-71
2021/12/01 03:59:06;;;;;;;10.23;7.70;;;10.80;99.90;;;10.94;100.00;99205.47;5052823;28;20053;-71
2021/12/01 04:01:35;;;;;;;9.95;7.82;;;10.80;99.90;;;10.96;100.00;99197.47;5052837;28;20127;-71
2021/12/01 04:04:04;;;;;;;9.48;7.60;;;10.80;99.90;;;10.87;100.00;99183.66;5052490;28;20065;-71
2021/12/01 04:06:33;;;;;;;8.88;8.18;;;10.70;99.90;;;10.83;100.00;99162.66;5052452;28;20517;-71
2021/12/01 04:09:04;;;;;;;10.38;8.20;;;10.70;99.90;;;10.80;100.00;99171.53;5052265;28;20471;-71
2021/12/01 04:11:32;;;;;;;9.88;8.88;;;10.70;99.90;;;10.83;100.00;99200.53;5052794;28;20450;-72
2021/12/01 04:14:01;;;;;;;10.38;7.85;;;10.70;99.90;;;10.80;100.00;99162.75;5052927;28;20121;-71
2021/12/01 04:16:30;;;;;;;8.93;8.07;;;10.60;99.90;;;10.65;100.00;99118.28;5052374;28;20048;-71
2021/12/01 04:18:59;;;;;;;10.87;8.87;;;10.70;99.90;;;10.81;100.00;99162.69;5052936;28;20041;-71
2021/12/01 04:21:27;;;;;;;8.70;7.10;;;10.70;99.90;;;10.72;100.00;99130.41;5052307;28;20306;-71
2021/12/01 04:23:56;;;;;;;8.85;8.05;;;10.70;99.90;;;10.67;100.00;99122.63;5052560;28;20049;-71
2021/12/01 04:26:27;;;;;;;8.50;7.70;;;10.70;99.90;;;10.83;100.00;99136.19;5052519;28;20092;-72
2021/12/01 04:28:56;;;;;;;7.90;6.93;;;10.60;99.90;;;10.79;100.00;99116.06;5052256;28;20464;-72
2021/12/01 04:31:26;;;;;;;9.20;7.20;;;10.70;99.90;;;10.84;100.00;99127.34;5052522;28;20041;-71
2021/12/01 04:33:57;;;;;;;7.97;7.15;;;10.70;99.90;;;10.86;100.00;99133.44;5052249;28;20522;-71
2021/12/01 04:36:31;;;;;;;7.97;6.97;;;10.70;99.90;;;10.89;100.00;99130.72;5052763;28;20110;-71
2021/12/01 04:38:59;;;;;;;8.02;7.22;;;10.70;99.90;;;10.75;100.00;99080.06;5051230;28;20056;-71
2021/12/01 04:41:30;;;;;;;8.70;7.13;;;10.70;99.90;;;10.79;100.00;99116.06;5052159;28;20051;-72
2021/12/01 04:44:00;;;;;;;10.07;7.13;;;10.70;99.90;;;10.68;100.00;99103.19;5052223;28;20098;-71
2021/12/01 04:46:29;;;;;;;8.32;7.63;;;10.60;99.90;;;10.74;100.00;99102.13;5052366;28;20103;-72
2021/12/01 04:48:58;;;;;;;10.35;7.53;;;10.60;99.90;;;10.80;100.00;99076.34;5053282;28;20132;-71
2021/12/01 04:51:27;;;;;;;7.50;6.90;;;10.60;99.90;;;10.70;100.00;99089.94;5056150;28;20111;-72
2021/12/01 04:53:58;;;;;;;7.97;7.18;;;10.50;99.90;;;10.72;100.00;99075.72;5056364;28;20069;-72
2021/12/01 04:56:27;;;;;;;8.20;7.40;;;10.50;99.90;;;10.79;100.00;99081.69;5056309;28;20037;-71
2021/12/01 04:58:55;;;;;;;8.38;7.32;;;10.60;99.90;;;10.77;100.00;99094.09;5055849;28;20131;-71
2021/12/01 05:01:24;;;;;;;8.30;7.45;;;10.60;99.90;;;10.79;100.00;99065.81;5055903;28;20530;-71
2021/12/01 05:03:52;;;;;;;7.25;6.57;;;10.60;99.90;;;10.70;100.00;99052.91;5054546;28;20037;-71
2021/12/01 05:06:22;;;;;;;8.10;7.22;;;10.60;99.90;;;10.74;100.00;99065.13;5054520;28;20049;-71
2021/12/01 05:08:50;;;;;;;6.63;6.07;;;10.60;99.90;;;10.73;100.00;99058.97;5055898;28;20067;-72
2021/12/01 05:11:22;;;;;;;6.78;6.07;;;10.60;99.90;;;10.76;100.00;99058.84;5055802;28;20135;-71
2021/12/01 05:14:10;;;;;;;7.28;6.35;;;10.60;99.90;;;10.81;100.00;99037.53;5055480;28;20162;-71
2021/12/01 05:16:40;;;;;;;7.25;5.82;;;10.60;99.90;;;10.71;100.00;99017.63;5055897;28;20049;-72
2021/12/01 05:19:10;;;;;;;9.35;6.45;;;10.60;99.90;;;10.72;100.00;99045.81;5055616;28;20044;-71
2021/12/01 05:21:41;;;;;;;7.18;5.40;;;10.60;99.90;;;10.79;100.00;99061.41;5055258;28;20410;-72
2021/12/01 05:24:09;;;;;;;;;;;10.60;99.90;;;10.76;100.00;99037.69;5055925;28;20041;-72
2021/12/01 05:26:38;;;;;;;6.75;6.03;;;10.60;99.90;;;10.77;100.00;99034.16;5055442;28;20041;-71
2021/12/01 05:29:07;;;;;;;5.57;5.07;;;10.60;99.90;;;10.80;100.00;99028.72;5055054;28;20045;-70
2021/12/01 05:31:35;;;;;;;4.80;4.40;;;10.60;99.90;;;10.86;100.00;99043.53;5053817;28;20152;-70
2021/12/01 05:34:04;;;;;;;5.82;4.93;;;10.70;99.90;;;10.83;100.00;99027.78;5055071;28;20479;-70
2021/12/01 05:36:32;;;;;;;5.40;4.90;;;10.70;99.90;;;10.81;100.00;99041.06;5054967;28;20048;-70
2021/12/01 05:39:02;;;;;;;6.43;4.30;;;10.60;99.90;;;10.81;100.00;99037.53;5055218;28;20079;-71
2021/12/01 05:41:32;;;;;;;5.82;4.25;;;10.60;99.90;;;10.75;100.00;99021.88;5055171;28;20049;-72
2021/12/01 05:44:01;;;;;;;6.90;4.45;;;10.60;99.90;;;10.62;100.00;98992.38;5054916;28;20102;-70
2021/12/01 05:46:34;;;;;;;8.15;5.18;;;10.60;99.90;;;10.83;100.00;99033.06;5054805;28;20552;-70
2021/12/01 05:49:03;;;;;;;6.20;5.50;;;10.60;99.90;;;10.77;100.00;99020.06;5055137;28;20072;-69
2021/12/01 05:51:32;;;;;;;8.47;5.73;;;10.60;99.90;;;10.70;100.00;98966.50;5054792;28;20045;-69
2021/12/01 05:54:02;;;;;;;10.23;6.07;;;10.60;99.90;;;10.79;100.00;99007.66;5054706;28;20126;-70
2021/12/01 05:56:31;;;;;;;7.20;5.50;;;10.60;99.90;;;10.71;100.00;98955.03;5054749;28;20102;-69
2021/12/01 05:58:59;;;;;;;8.55;5.28;;;10.70;99.90;;;10.84;100.00;98973.94;5054517;28;20570;-69
2021/12/01 06:01:28;;;;;;;15.52;6.18;;;10.70;99.90;;;10.81;100.00;98993.47;5052597;28;20048;-70
2021/12/01 06:03:56;;;;;;;6.70;5.15;;;10.70;99.90;;;10.87;100.00;98980.03;5054735;28;20079;-69
2021/12/01 06:06:25;;;;;;;9.20;5.90;;;10.70;99.90;;;10.89;100.00;99006.41;5053419;28;20048;-69
2021/12/01 06:08:53;;;;;;;7.50;5.18;;;10.70;99.90;;;10.88;100.00;99009.94;5053221;28;20041;-69
2021/12/01 06:11:24;;;;;;;12.70;5.72;;;10.70;99.90;;;10.86;100.00;98980.06;5054472;28;20049;-69
2021/12/01 06:13:54;;;;;;;5.88;5.07;;;10.70;99.90;;;10.95;100.00;98974.44;5054882;28;20094;-69
2021/12/01 06:16:23;;;;;;;11.23;5.75;;;10.80;99.90;;;10.97;100.00;98988.47;5054238;28;20114;-69
2021/12/01 06:18:52;;;;;;;8.60;5.23;;;10.70;99.90;;;10.93;100.00;99000.09;5054131;28;20049;-69
2021/12/01 06:21:21;;;;;;;6.85;4.78;;;10.70;99.90;;;10.88;100.00;98978.22;5054111;28;20287;-70
2021/12/01 06:23:49;;;;;;;7.18;5.30;;;10.70;99.90;;;10.85;100.00;98963.34;5054053;28;20049;-70
2021/12/01 06:26:18;;;;;;;8.32;5.10;;;10.70;99.90;;;10.87;100.00;98964.16;5054242;28;20079;-69
2021/12/01 06:28:47;;;;;;;10.55;5.78;;;10.70;99.90;;;10.88;100.00;98962.34;5053957;28;20106;-69
2021/12/01 06:31:16;;;;;;;7.83;5.23;;;10.70;99.90;;;10.90;100.00;98971.97;5053835;28;20052;-69
2021/12/01 06:33:44;;;;;;;11.90;5.30;;;10.70;99.90;;;10.85;100.00;98946.59;5054311;28;20102;-69
2021/12/01 06:36:16;;;;;;;9.57;5.30;;;10.70;99.90;;;10.87;100.00;98934.19;5053807;28;20045;-70
2021/12/01 06:38:44;;;;;;;8.98;4.90;;;10.70;99.90;;;10.91;100.00;98951.69;5054269;28;20036;-70
2021/12/01 06:41:12;;;;;;;9.82;5.78;;;10.70;99.90;;;10.79;100.00;98920.38;5053952;28;20044;-70
2021/12/01 06:43:41;;;;;;;18.30;5.47;;;10.70;99.90;;;10.96;100.00;98955.00;5053546;28;20041;-69
2021/12/01 06:46:12;;;;;;;10.57;4.90;;;10.80;99.90;;;11.00;100.00;98940.75;5052275;28;20041;-69
2021/12/01 06:48:41;;;;;;;9.73;5.28;;;10.80;99.90;;;10.98;100.00;98928.50;5053614;28;20041;-69
2021/12/01 06:51:10;;;;;;;13.00;5.90;;;10.80;99.90;;;10.99;100.00;98939.03;5053448;28;20056;-69
2021/12/01 06:53:38;;;;;;;12.32;5.38;;;10.80;99.90;;;11.01;100.00;98937.19;5053480;28;20065;-69
2021/12/01 06:56:08;;;;;;;11.73;5.50;;;10.80;99.90;;;11.03;100.00;98930.06;5053311;28;20068;-69
2021/12/01 06:58:37;;;;;;;13.75;6.55;;;10.80;99.90;;;10.82;100.00;98901.75;5053603;28;20052;-69
2021/12/01 07:01:07;;;;;;;12.75;5.28;;;10.80;99.90;;;10.91;100.00;98896.13;5053492;28;20449;-69
2021/12/01 07:03:43;;;;;;;14.52;6.05;;;10.80;99.90;;;11.07;100.00;98922.88;5053316;28;20133;-69
2021/12/01 07:06:11;;;;;;;18.20;6.30;;;10.80;99.90;;;11.06;100.00;98921.13;5053284;28;20048;-69
2021/12/01 07:08:40;;;;;;;24.65;6.40;;;10.90;99.90;;;11.12;100.00;98903.25;5052234;28;20072;-69
2021/12/01 07:11:08;;;;;;;16.83;5.75;;;10.90;99.90;;;11.10;100.00;98901.59;5053025;28;20044;-69
2021/12/01 07:13:36;;;;;;;14.55;5.57;;;10.90;99.90;;;11.16;100.00;98880.19;5052954;28;20068;-69
2021/12/01 07:16:06;;;;;;;24.13;6.18;;;11.00;99.90;;;11.20;100.00;98911.78;5053078;28;20099;-69
2021/12/01 07:18:34;;;;;;;23.67;6.38;;;11.00;99.90;;;11.23;100.00;98895.75;5053339;28;20095;-69
2021/12/01 07:21:04;;;;;;;22.35;6.95;;;11.00;99.90;;;11.11;100.00;98863.63;5052971;28;20091;-69
2021/12/01 07:23:33;;;;;;;19.73;6.13;;;11.00;99.90;;;11.27;100.00;98893.84;5053154;28;20048;-69
2021/12/01 07:26:02;;;;;;;20.48;5.75;;;11.10;99.90;;;11.19;100.00;98888.03;5053463;28;20140;-69
2021/12/01 07:28:31;;;;;;;26.27;6.10;;;11.10;99.90;;;11.22;100.00;98878.19;5051888;28;20384;-68
2021/12/01 07:31:00;;;;;;;21.65;6.50;;;11.10;99.90;;;11.23;100.00;98890.47;5052620;28;20483;-68
2021/12/01 07:33:30;;;;;;;20.17;6.05;;;11.00;99.90;;;11.01;100.00;98880.78;5053051;28;20049;-69
2021/12/01 07:35:59;;;;;;;26.88;7.15;;;11.00;99.90;;;11.37;100.00;98914.63;5051750;28;20551;-69
2021/12/01 07:38:28;;;;;;;23.08;7.57;;;11.20;99.90;;;11.39;100.00;98894.25;5052731;28;20049;-69
2021/12/01 07:40:57;;;;;;;22.52;7.00;;;11.20;99.90;;;11.31;100.00;98900.75;5052702;28;20053;-69
2021/12/01 07:43:25;;;;;;;23.60;7.18;;;11.20;99.90;;;11.38;100.00;98911.03;5053259;28;20569;-69
2021/12/01 07:45:54;;;;;;;30.30;7.28;;;11.20;99.90;;;11.42;99.72;98917.09;5051610;28;20494;-68
2021/12/01 07:48:22;;;;;;;23.25;7.10;;;11.30;99.90;;;11.45;97.83;98920.47;5052931;28;20063;-69
2021/12/01 07:50:50;;;;;;;14.02;5.15;;;11.30;99.90;;;11.07;93.93;98914.94;5052480;28;20048;-68
2021/12/01 07:53:19;;;;;;;15.55;5.05;;;11.00;99.90;;;10.92;89.78;98928.75;5052568;28;20044;-68
2021/12/01 07:55:49;;;;;;;9.63;4.38;;;10.90;99.90;;;10.75;88.57;98914.34;5052609;28;20037;-68
2021/12/01 07:58:17;;;;;;;16.33;4.80;;;10.80;99.90;;;10.80;88.21;98933.53;5053341;28;20103;-69
2021/12/01 08:00:46;;;;;;;15.65;5.32;;;10.70;99.90;;;10.68;88.79;98918.13;5052743;28;20484;-68
2021/12/01 08:03:14;;;;;;;11.68;4.35;;;10.60;99.90;;;10.52;89.10;98892.31;5051441;28;20406;-68
2021/12/01 08:05:44;;;;;;;17.65;4.95;;;10.50;99.90;;;10.51;89.26;98924.94;5052270;28;20518;-68
2021/12/01 08:08:13;;;;;;;15.55;4.57;;;10.40;99.90;;;10.23;89.31;98897.75;5051372;28;20486;-69
2021/12/01 08:10:42;;;;;;;13.02;4.55;;;10.30;99.90;;;10.23;90.51;98856.34;5052211;28;20047;-69
2021/12/01 08:13:12;;;;;;;19.92;5.25;;;10.20;99.90;;;10.15;92.27;98924.44;5052346;28;20079;-69
2021/12/01 08:15:49;;;;;;;28.40;5.50;;;10.00;99.90;;;10.15;93.63;98899.78;5052398;28;20033;-71
2021/12/01 08:18:18;;;;;;;21.38;5.50;;;10.00;99.90;;;10.26;93.90;98918.78;5052299;28;20067;-69
2021/12/01 08:20:47;;;;;;;27.33;6.05;;;10.10;99.90;;;10.24;93.57;98921.47;5052868;28;20044;-69
2021/12/01 08:23:16;;;;;;;22.95;4.95;;;10.10;99.90;;;10.24;92.43;98926.75;5052579;28;20045;-69
2021/12/01 08:25:45;;;;;;;18.63;5.55;;;10.10;99.90;;;10.35;90.93;98942.25;5056324;28;20069;-69
2021/12/01 08:28:15;;;;;;;15.73;5.30;;;10.20;99.90;;;10.44;91.56;98936.63;5056822;28;20049;-69
2021/12/01 08:30:43;;;;;;;18.30;5.03;;;10.30;99.90;;;10.43;91.68;98942.84;5054884;28;20499;-69
2021/12/01 08:33:12;;;;;;;15.90;4.82;;;10.30;99.90;;;10.43;91.73;98948.13;5056189;28;20557;-69
2021/12/01 08:35:41;;;;;;;22.35;5.22;;;10.30;99.90;;;10.38;90.65;98947.41;5056192;28;20048;-69
2021/12/01 08:38:09;;;;;;;20.02;5.47;;;10.30;99.90;;;10.40;90.71;98957.03;5054902;28;20041;-69
2021/12/01 08:40:39;;;;;;;18.25;5.22;;;10.30;99.90;;;10.50;89.84;98969.00;5056226;28;20048;-69
2021/12/01 08:43:08;;;;;;;15.02;5.07;;;10.30;99.90;;;10.55;89.77;98971.50;5056500;28;20081;-70
2021/12/01 08:45:37;;;;;;;22.13;5.18;;;10.40;99.90;;;10.61;89.62;98979.19;5055972;28;20040;-69
2021/12/01 08:48:06;;;;;;;17.10;5.07;;;10.50;99.90;;;10.55;89.69;98993.50;5056147;28;20049;-69
2021/12/01 08:50:35;;;;;;;17.92;4.72;;;10.50;99.90;;;10.39;91.75;98999.38;5055962;28;20398;-69
2021/12/01 08:53:04;;;;;;;15.63;4.63;;;10.40;99.90;;;10.62;92.44;98991.50;5055819;28;20087;-69
2021/12/01 08:55:32;;;;;;;19.20;4.55;;;10.50;99.90;;;10.50;92.64;98998.09;5054657;28;20576;-69
2021/12/01 08:58:08;;;;;;;16.77;5.13;;;10.40;99.90;;;10.62;92.62;99005.59;5055679;28;20049;-69
2021/12/01 09:00:43;;;;;;;16.30;4.25;;;10.40;99.90;;;10.68;92.12;99000.06;5055654;28;20053;-69
2021/12/01 09:03:13;;;;;;;17.60;5.15;;;10.50;99.90;;;10.74;92.21;99001.66;5055855;28;20477;-70
2021/12/01 09:05:45;;;;;;;10.68;4.25;;;10.60;99.90;;;10.70;91.31;98994.75;5055896;28;20398;-70
2021/12/01 09:08:15;;;;;;;11.90;4.25;;;10.60;99.90;;;8.55;91.42;98662.44;5055841;28;20049;-69
2021/12/01 09:10:44;;;;;;;15.02;4.38;;;10.40;99.90;;;10.43;91.65;99009.75;5055625;28;20037;-69
2021/12/01 09:13:13;;;;;;;17.17;5.25;;;10.40;99.90;;;10.22;93.81;99010.47;5054320;28;20530;-70
2021/12/01 09:15:44;;;;;;;19.35;5.00;;;10.20;99.90;;;10.08;95.32;99025.03;5055781;28;20037;-70
2021/12/01 09:18:13;;;;;;;14.50;4.75;;;10.00;99.90;;;9.63;96.21;98964.84;5055852;28;20045;-69
2021/12/01 09:20:41;;;;;;;13.60;4.30;;;9.90;99.90;;;9.68;96.38;99004.28;5055487;28;20136;-69
2021/12/01 09:23:09;;;;;;;20.38;5.30;;;9.60;99.90;;;9.79;96.92;99026.78;5055150;28;20148;-70
2021/12/01 09:25:38;;;;;;;16.52;4.55;;;9.70;99.90;;;9.42;96.95;98998.94;5055107;28;20124;-70
2021/12/01 09:28:15;;;;;;;13.32;4.47;;;9.60;99.90;;;8.96;97.12;98920.31;5055197;28;20048;-69
2021/12/01 09:30:46;;;;;;;13.07;4.88;;;9.60;99.90;;;9.62;97.28;99026.44;5055033;28;20055;-69
2021/12/01 09:33:16;;;;;;;15.02;5.18;;;9.50;99.90;;;9.66;96.74;99027.22;5055339;28;20045;-69
2021/12/01 09:35:46;;;;;;;15.02;5.53;;;9.60;99.90;;;9.87;96.38;99037.13;5053703;28;20052;-70
2021/12/01 09:38:17;;;;;;;20.05;5.30;;;9.70;99.90;;;9.83;95.87;99028.41;5055144;28;20064;-70
2021/12/01 09:40:51;;;;;;;17.27;5.05;;;9.70;99.90;;;9.86;95.32;99036.25;5055254;28;20045;-70
2021/12/01 09:43:25;;;;;;;14.70;4.68;;;9.80;99.90;;;9.86;94.07;99038.03;5055125;28;20072;-70
2021/12/01 09:45:58;;;;;;;18.52;4.80;;;9.80;99.90;;;9.80;93.98;99020.63;5055101;28;20053;-70
2021/12/01 09:48:27;;;;;;;17.17;5.03;;;9.80;99.90;;;9.86;93.44;99041.53;5054803;28;20416;-70
2021/12/01 09:51:13;;;;;;;14.90;5.28;;;9.80;99.90;;;9.84;93.03;99048.66;5054921;28;20073;-70
2021/12/01 09:53:42;;;;;;;;;;;9.70;99.90;;;9.37;93.28;98962.13;5055408;28;20422;-70
2021/12/01 09:56:11;;;;;;;14.50;4.28;;;9.70;99.90;;;9.80;93.23;99047.00;5054546;28;19920;-70
2021/12/01 09:58:42;;;;;;;14.57;4.35;;;9.70;99.90;;;9.74;93.87;99048.97;5054340;28;20490;-70
2021/12/01 10:01:16;;;;;;;16.00;5.43;;;9.70;99.90;;;9.84;93.80;99067.13;5054558;28;20045;-70
2021/12/01 10:03:45;;;;;;;23.58;5.43;;;9.70;99.90;;;9.85;94.24;99066.19;5054976;28;20041;-70
2021/12/01 10:06:17;;;;;;;20.30;4.95;;;9.70;99.90;;;9.94;93.93;99060.66;5054519;28;20123;-70
2021/12/01 10:08:49;;;;;;;19.15;4.70;;;9.80;99.90;;;9.71;93.75;99005.06;5054611;28;20052;-70
2021/12/01 10:11:19;;;;;;;17.40;4.70;;;9.90;99.90;;;10.01;93.58;99051.63;5054302;28;20043;-70
2021/12/01 10:13:52;;;;;;;17.15;5.28;;;9.90;99.90;;;10.18;93.75;99056.41;5054278;28;20041;-70
2021/12/01 10:16:24;;;;;;;20.10;5.45;;;10.00;99.90;;;10.17;92.59;99040.59;5054247;28;20041;-70
2021/12/01 10:18:57;;;;;;;18.17;5.03;;;10.10;99.90;;;10.27;92.29;99036.75;5054162;28;20075;-70
2021/12/01 10:21:32;;;;;;;17.08;5.50;;;10.20;99.90;;;10.46;91.32;99032.59;5054470;28;20041;-71
2021/12/01 10:24:04;;;;;;;15.35;5.03;;;10.30;99.90;;;10.41;89.66;99024.84;5054277;28;20065;-70
2021/12/01 10:26:38;;;;;;;15.88;4.90;;;10.30;99.90;;;10.43;88.43;99032.69;5052988;28;20490;-70